createdAt,value
2017-10-29T00:00:41.786Z,997.8
2017-10-29T00:01:43.769Z,998.0
2017-10-29T00:02:45.211Z,997.8
2017-10-29T00:03:48.013Z,997.8
2017-10-29T00:04:51.065Z,997.8
2017-10-29T00:05:52.696Z,997.7
2017-10-29T00:06:54.862Z,997.8
2017-10-29T00:07:56.549Z,997.6
2017-10-29T00:08:57.953Z,997.6
2017-10-29T00:09:59.351Z,997.5
2017-10-29T00:11:01.315Z,997.4
2017-10-29T00:12:02.705Z,997.5
2017-10-29T00:13:04.106Z,997.6
2017-10-29T00:14:05.497Z,997.4
2017-10-29T00:15:06.895Z,997.4
2017-10-29T00:16:08.290Z,997.5
2017-10-29T00:17:09.687Z,997.4
2017-10-29T00:18:11.085Z,997.5
2017-10-29T00:19:12.481Z,997.4
2017-10-29T00:20:13.876Z,997.4
2017-10-29T00:21:15.272Z,997.3
2017-10-29T00:22:16.687Z,997.5
2017-10-29T00:23:18.073Z,997.4
2017-10-29T00:24:19.467Z,997.3
2017-10-29T00:25:20.863Z,997.4
2017-10-29T00:26:22.261Z,997.4
2017-10-29T00:27:23.655Z,997.3
2017-10-29T00:28:25.050Z,997.3
2017-10-29T00:29:26.449Z,997.3
2017-10-29T00:30:27.848Z,997.3
2017-10-29T00:31:29.244Z,997.2
2017-10-29T00:32:30.644Z,997.1
2017-10-29T00:33:32.043Z,997.1
2017-10-29T00:34:33.441Z,997.1
2017-10-29T00:35:34.840Z,997.3
2017-10-29T00:36:36.236Z,997.1
2017-10-29T00:37:37.632Z,997.0
2017-10-29T00:38:39.029Z,997.0
2017-10-29T00:39:40.429Z,997.1
2017-10-29T00:40:41.825Z,997.0
2017-10-29T00:41:43.225Z,997.0
2017-10-29T00:42:44.617Z,997.2
2017-10-29T00:43:46.021Z,997.0
2017-10-29T00:44:47.423Z,996.9
2017-10-29T00:45:48.817Z,996.9
2017-10-29T00:46:50.216Z,996.8
2017-10-29T00:47:51.616Z,996.9
2017-10-29T00:48:53.009Z,997.0
2017-10-29T00:49:54.405Z,996.9
2017-10-29T00:50:55.805Z,996.9
2017-10-29T00:51:57.201Z,996.9
2017-10-29T00:52:58.616Z,996.9
2017-10-29T00:54:00.005Z,996.9
2017-10-29T00:55:01.407Z,996.8
2017-10-29T00:56:02.807Z,996.8
2017-10-29T00:57:04.206Z,997.0
2017-10-29T00:58:05.603Z,996.9
2017-10-29T00:59:06.999Z,996.9
2017-10-29T01:00:08.393Z,996.8
2017-10-29T01:01:09.795Z,996.8
2017-10-29T01:02:11.193Z,996.8
2017-10-29T01:03:12.587Z,996.9
2017-10-29T01:04:13.990Z,996.8
2017-10-29T01:05:15.385Z,997.0
2017-10-29T01:06:16.781Z,996.8
2017-10-29T01:07:18.182Z,996.7
2017-10-29T01:08:19.578Z,996.9
2017-10-29T01:09:20.973Z,996.8
2017-10-29T01:10:22.371Z,996.8
2017-10-29T01:11:23.768Z,996.9
2017-10-29T01:12:25.162Z,996.8
2017-10-29T01:13:26.564Z,996.8
2017-10-29T01:14:27.960Z,996.8
2017-10-29T01:15:29.372Z,996.8
2017-10-29T01:16:30.769Z,997.0
2017-10-29T01:17:32.160Z,996.7
2017-10-29T01:18:33.560Z,996.7
2017-10-29T01:19:34.954Z,996.7
2017-10-29T01:20:37.378Z,996.6
2017-10-29T01:21:38.781Z,996.6
2017-10-29T01:22:40.172Z,996.7
2017-10-29T01:23:41.571Z,996.8
2017-10-29T01:24:42.968Z,996.6
2017-10-29T01:25:44.367Z,996.6
2017-10-29T01:26:45.760Z,996.7
2017-10-29T01:27:47.161Z,996.5
2017-10-29T01:28:48.560Z,996.5
2017-10-29T01:29:49.956Z,996.5
2017-10-29T01:30:51.357Z,996.4
2017-10-29T01:31:52.751Z,996.4
2017-10-29T01:32:54.147Z,996.5
2017-10-29T01:33:55.544Z,996.6
2017-10-29T01:34:56.940Z,996.4
2017-10-29T01:35:58.340Z,996.4
2017-10-29T01:36:59.742Z,996.7
2017-10-29T01:38:01.136Z,996.4
2017-10-29T01:39:02.540Z,996.5
2017-10-29T01:40:03.942Z,996.4
2017-10-29T01:41:05.338Z,996.4
2017-10-29T01:42:06.734Z,996.5
2017-10-29T01:43:08.133Z,996.4
2017-10-29T01:44:09.532Z,996.4
2017-10-29T01:45:10.936Z,996.3
2017-10-29T01:46:12.334Z,996.4
2017-10-29T01:47:13.768Z,996.3
2017-10-29T01:48:15.126Z,996.3
2017-10-29T01:49:16.525Z,996.3
2017-10-29T01:50:17.922Z,996.2
2017-10-29T01:51:19.323Z,996.2
2017-10-29T01:52:20.720Z,996.2
2017-10-29T01:53:22.113Z,996.2
2017-10-29T01:54:23.511Z,996.3
2017-10-29T01:55:24.911Z,996.1
2017-10-29T01:56:26.314Z,996.1
2017-10-29T01:57:27.713Z,996.0
2017-10-29T01:58:29.119Z,996.0
2017-10-29T01:59:30.510Z,996.3
2017-10-29T02:00:31.907Z,996.1
2017-10-29T02:01:33.300Z,996.2
2017-10-29T02:02:34.705Z,996.2
2017-10-29T02:03:36.107Z,996.1
2017-10-29T02:04:37.508Z,996.1
2017-10-29T02:05:38.907Z,996.0
2017-10-29T02:06:40.307Z,996.0
2017-10-29T02:07:41.700Z,996.0
2017-10-29T02:08:43.095Z,996.2
2017-10-29T02:09:44.492Z,996.0
2017-10-29T02:10:45.886Z,995.9
2017-10-29T02:11:47.310Z,995.9
2017-10-29T02:12:48.683Z,995.9
2017-10-29T02:13:50.098Z,996.0
2017-10-29T02:14:51.480Z,995.9
2017-10-29T02:15:52.873Z,995.8
2017-10-29T02:16:54.269Z,995.8
2017-10-29T02:17:55.669Z,995.7
2017-10-29T02:18:57.068Z,995.8
2017-10-29T02:19:58.469Z,995.8
2017-10-29T02:20:59.869Z,995.8
2017-10-29T02:22:01.268Z,995.7
2017-10-29T02:23:02.665Z,995.8
2017-10-29T02:24:04.063Z,995.8
2017-10-29T02:25:05.460Z,995.8
2017-10-29T02:26:06.859Z,995.8
2017-10-29T02:27:08.268Z,995.7
2017-10-29T02:28:09.669Z,995.6
2017-10-29T02:29:11.071Z,995.7
2017-10-29T02:30:12.470Z,995.7
2017-10-29T02:31:13.862Z,995.8
2017-10-29T02:32:15.259Z,995.6
2017-10-29T02:33:16.656Z,995.7
2017-10-29T02:34:18.059Z,995.6
2017-10-29T02:35:19.456Z,995.6
2017-10-29T02:36:20.848Z,995.5
2017-10-29T02:37:22.245Z,995.6
2017-10-29T02:38:23.645Z,995.4
2017-10-29T02:39:25.046Z,995.4
2017-10-29T02:40:26.443Z,995.5
2017-10-29T02:41:27.840Z,995.4
2017-10-29T02:42:29.243Z,995.4
2017-10-29T02:43:30.640Z,995.4
2017-10-29T02:44:32.039Z,995.5
2017-10-29T02:45:33.443Z,995.5
2017-10-29T02:46:34.835Z,995.5
2017-10-29T02:47:36.234Z,995.4
2017-10-29T02:48:37.633Z,995.4
2017-10-29T02:49:39.032Z,995.4
2017-10-29T02:50:40.427Z,995.3
2017-10-29T02:51:41.824Z,995.4
2017-10-29T02:52:43.243Z,995.3
2017-10-29T02:53:44.615Z,995.4
2017-10-29T02:54:46.026Z,995.3
2017-10-29T02:55:47.416Z,995.2
2017-10-29T02:56:48.813Z,995.2
2017-10-29T02:57:50.209Z,995.2
2017-10-29T02:58:51.604Z,995.2
2017-10-29T02:59:53.004Z,995.3
2017-10-29T03:00:54.359Z,995.2
2017-10-29T03:01:55.760Z,995.3
2017-10-29T03:02:57.153Z,995.2
2017-10-29T03:03:58.550Z,995.2
2017-10-29T03:04:59.950Z,995.2
2017-10-29T03:06:01.345Z,995.2
2017-10-29T03:07:02.768Z,995.3
2017-10-29T03:08:04.169Z,995.3
2017-10-29T03:09:05.571Z,995.3
2017-10-29T03:10:07.536Z,995.4
2017-10-29T03:11:08.928Z,995.4
2017-10-29T03:12:10.325Z,995.1
2017-10-29T03:13:11.724Z,995.2
2017-10-29T03:14:13.128Z,995.6
2017-10-29T03:15:14.525Z,995.3
2017-10-29T03:16:15.922Z,995.3
2017-10-29T03:17:17.320Z,995.3
2017-10-29T03:18:18.714Z,995.3
2017-10-29T03:19:20.112Z,995.3
2017-10-29T03:20:21.509Z,995.3
2017-10-29T03:21:22.905Z,995.3
2017-10-29T03:22:24.314Z,995.3
2017-10-29T03:23:25.706Z,995.3
2017-10-29T03:24:27.122Z,995.2
2017-10-29T03:25:28.507Z,995.3
2017-10-29T03:26:29.908Z,995.3
2017-10-29T03:27:31.305Z,995.3
2017-10-29T03:28:32.702Z,995.3
2017-10-29T03:29:34.099Z,995.2
2017-10-29T03:30:35.494Z,995.3
2017-10-29T03:31:36.895Z,995.4
2017-10-29T03:32:38.294Z,995.4
2017-10-29T03:33:39.687Z,995.3
2017-10-29T03:34:41.083Z,995.4
2017-10-29T03:35:42.481Z,995.4
2017-10-29T03:36:43.880Z,995.4
2017-10-29T03:37:45.275Z,995.4
2017-10-29T03:38:46.678Z,995.4
2017-10-29T03:39:48.074Z,995.5
2017-10-29T03:40:49.479Z,995.5
2017-10-29T03:41:50.874Z,995.5
2017-10-29T03:42:52.270Z,995.5
2017-10-29T03:43:53.670Z,995.5
2017-10-29T03:44:55.066Z,995.5
2017-10-29T03:45:56.466Z,995.6
2017-10-29T03:46:57.860Z,995.5
2017-10-29T03:47:59.253Z,995.5
2017-10-29T03:49:00.653Z,995.6
2017-10-29T03:50:02.048Z,995.6
2017-10-29T03:51:03.441Z,995.6
2017-10-29T03:52:04.843Z,995.5
2017-10-29T03:53:06.239Z,995.6
2017-10-29T03:54:07.642Z,995.5
2017-10-29T03:55:09.044Z,995.5
2017-10-29T03:56:10.444Z,995.5
2017-10-29T03:57:11.838Z,995.6
2017-10-29T03:58:13.233Z,995.5
2017-10-29T03:59:14.641Z,995.5
2017-10-29T04:00:16.027Z,995.6
2017-10-29T04:01:17.425Z,995.6
2017-10-29T04:02:18.821Z,995.7
2017-10-29T04:03:20.216Z,995.7
2017-10-29T04:04:21.614Z,995.6
2017-10-29T04:05:23.010Z,995.7
2017-10-29T04:06:24.407Z,995.6
2017-10-29T04:07:25.809Z,995.8
2017-10-29T04:08:27.207Z,995.8
2017-10-29T04:09:28.607Z,995.7
2017-10-29T04:10:30.001Z,995.7
2017-10-29T04:11:31.400Z,995.8
2017-10-29T04:12:32.795Z,995.7
2017-10-29T04:13:34.191Z,995.7
2017-10-29T04:14:35.591Z,995.8
2017-10-29T04:15:36.989Z,995.8
2017-10-29T04:16:38.386Z,995.8
2017-10-29T04:17:39.787Z,995.9
2017-10-29T04:18:41.186Z,995.9
2017-10-29T04:19:42.582Z,995.8
2017-10-29T04:20:43.984Z,995.8
2017-10-29T04:21:45.381Z,995.8
2017-10-29T04:22:46.782Z,995.7
2017-10-29T04:23:48.178Z,995.8
2017-10-29T04:24:49.576Z,995.8
2017-10-29T04:25:50.978Z,995.8
2017-10-29T04:26:52.375Z,995.7
2017-10-29T04:27:53.771Z,996.0
2017-10-29T04:28:55.172Z,996.0
2017-10-29T04:29:56.621Z,996.1
2017-10-29T04:30:58.020Z,995.9
2017-10-29T04:31:59.421Z,995.8
2017-10-29T04:33:00.819Z,995.9
2017-10-29T04:34:02.222Z,995.7
2017-10-29T04:35:03.620Z,995.8
2017-10-29T04:36:05.016Z,995.8
2017-10-29T04:37:06.412Z,995.8
2017-10-29T04:38:07.808Z,995.8
2017-10-29T04:39:09.204Z,995.7
2017-10-29T04:40:10.598Z,995.7
2017-10-29T04:41:11.996Z,995.7
2017-10-29T04:42:13.392Z,995.7
2017-10-29T04:43:14.789Z,995.9
2017-10-29T04:44:16.186Z,996.1
2017-10-29T04:45:17.585Z,996.0
2017-10-29T04:46:18.982Z,996.1
2017-10-29T04:47:20.375Z,995.9
2017-10-29T04:48:21.796Z,995.9
2017-10-29T04:49:23.192Z,996.0
2017-10-29T04:50:24.590Z,995.8
2017-10-29T04:51:25.988Z,995.7
2017-10-29T04:52:27.381Z,995.6
2017-10-29T04:53:28.782Z,995.8
2017-10-29T04:54:30.180Z,995.8
2017-10-29T04:55:31.577Z,995.8
2017-10-29T04:56:32.974Z,995.9
2017-10-29T04:57:34.372Z,995.8
2017-10-29T04:58:35.770Z,995.9
2017-10-29T04:59:37.165Z,996.2
2017-10-29T05:00:38.557Z,995.9
2017-10-29T05:01:39.955Z,996.0
2017-10-29T05:02:41.358Z,996.0
2017-10-29T05:03:42.752Z,996.0
2017-10-29T05:04:44.152Z,996.0
2017-10-29T05:05:45.565Z,996.0
2017-10-29T05:06:46.958Z,996.1
2017-10-29T05:07:48.348Z,996.2
2017-10-29T05:08:49.753Z,996.2
2017-10-29T05:09:51.146Z,996.1
2017-10-29T05:10:52.546Z,996.1
2017-10-29T05:11:53.941Z,996.2
2017-10-29T05:12:55.342Z,996.1
2017-10-29T05:13:56.735Z,996.1
2017-10-29T05:14:58.132Z,996.2
2017-10-29T05:15:59.527Z,996.2
2017-10-29T05:17:00.922Z,996.3
2017-10-29T05:18:02.324Z,996.3
2017-10-29T05:19:03.722Z,996.3
2017-10-29T05:20:05.124Z,996.2
2017-10-29T05:21:06.520Z,996.3
2017-10-29T05:22:07.912Z,996.2
2017-10-29T05:23:09.315Z,996.3
2017-10-29T05:24:10.717Z,996.3
2017-10-29T05:25:12.114Z,996.2
2017-10-29T05:26:13.512Z,996.3
2017-10-29T05:27:14.913Z,996.3
2017-10-29T05:28:16.319Z,996.3
2017-10-29T05:29:17.711Z,996.4
2017-10-29T05:30:19.111Z,996.4
2017-10-29T05:31:20.521Z,996.4
2017-10-29T05:32:21.915Z,996.4
2017-10-29T05:33:23.323Z,996.4
2017-10-29T05:34:24.723Z,996.5
2017-10-29T05:35:26.168Z,996.5
2017-10-29T05:36:27.857Z,996.6
2017-10-29T05:37:29.263Z,996.8
2017-10-29T05:38:30.853Z,996.9
2017-10-29T05:39:32.258Z,996.7
2017-10-29T05:40:33.975Z,997.0
2017-10-29T05:41:35.371Z,997.0
2017-10-29T05:42:36.770Z,997.0
2017-10-29T05:43:38.164Z,996.9
2017-10-29T05:44:39.561Z,997.0
2017-10-29T05:45:41.016Z,997.1
2017-10-29T05:46:42.414Z,997.1
2017-10-29T05:47:43.812Z,997.0
2017-10-29T05:48:45.218Z,997.0
2017-10-29T05:49:46.648Z,997.1
2017-10-29T05:50:48.042Z,997.1
2017-10-29T05:51:49.440Z,997.2
2017-10-29T05:52:50.835Z,997.1
2017-10-29T05:53:52.310Z,997.2
2017-10-29T05:54:53.710Z,997.2
2017-10-29T05:55:55.200Z,997.2
2017-10-29T05:56:56.594Z,997.3
2017-10-29T05:57:58.135Z,997.3
2017-10-29T05:58:59.534Z,997.2
2017-10-29T06:00:00.941Z,997.2
2017-10-29T06:01:02.340Z,997.3
2017-10-29T06:02:03.737Z,997.3
2017-10-29T06:03:05.173Z,997.3
2017-10-29T06:04:06.567Z,997.3
2017-10-29T06:05:08.008Z,997.2
2017-10-29T06:06:09.404Z,997.3
2017-10-29T06:07:10.821Z,997.4
2017-10-29T06:08:12.257Z,997.4
2017-10-29T06:09:13.660Z,997.4
2017-10-29T06:10:15.058Z,997.5
2017-10-29T06:11:16.454Z,997.4
2017-10-29T06:12:17.850Z,997.5
2017-10-29T06:13:19.250Z,997.5
2017-10-29T06:14:20.650Z,997.5
2017-10-29T06:15:22.045Z,997.6
2017-10-29T06:16:23.442Z,997.6
2017-10-29T06:17:24.840Z,997.6
2017-10-29T06:18:26.241Z,997.6
2017-10-29T06:19:27.640Z,997.7
2017-10-29T06:20:29.036Z,997.7
2017-10-29T06:21:30.436Z,997.8
2017-10-29T06:22:31.856Z,997.7
2017-10-29T06:23:33.252Z,997.7
2017-10-29T06:24:34.663Z,997.8
2017-10-29T06:25:36.050Z,997.8
2017-10-29T06:26:37.447Z,997.7
2017-10-29T06:27:38.851Z,997.8
2017-10-29T06:28:40.247Z,997.8
2017-10-29T06:29:41.647Z,997.9
2017-10-29T06:30:43.048Z,997.8
2017-10-29T06:31:44.450Z,997.8
2017-10-29T06:32:45.847Z,997.7
2017-10-29T06:33:47.245Z,997.7
2017-10-29T06:34:48.645Z,997.8
2017-10-29T06:35:50.054Z,997.8
2017-10-29T06:36:51.454Z,997.8
2017-10-29T06:37:52.849Z,998.0
2017-10-29T06:38:54.250Z,997.9
2017-10-29T06:39:55.646Z,998.0
2017-10-29T06:40:57.054Z,998.1
2017-10-29T06:41:58.451Z,998.1
2017-10-29T06:42:59.858Z,998.1
2017-10-29T06:44:01.264Z,998.1
2017-10-29T06:45:02.817Z,998.2
2017-10-29T06:46:04.216Z,998.3
2017-10-29T06:47:05.615Z,998.2
2017-10-29T06:48:07.013Z,998.2
2017-10-29T06:49:08.410Z,998.3
2017-10-29T06:50:09.809Z,998.3
2017-10-29T06:51:11.246Z,998.3
2017-10-29T06:52:12.662Z,998.4
2017-10-29T06:53:14.042Z,998.4
2017-10-29T06:54:15.463Z,998.4
2017-10-29T06:55:16.933Z,998.5
2017-10-29T06:56:18.322Z,998.5
2017-10-29T06:57:19.726Z,998.6
2017-10-29T06:58:21.123Z,998.6
2017-10-29T06:59:22.523Z,998.6
2017-10-29T07:00:23.920Z,998.7
2017-10-29T07:01:25.318Z,998.7
2017-10-29T07:02:26.714Z,998.7
2017-10-29T07:03:28.115Z,998.8
2017-10-29T07:04:29.507Z,998.9
2017-10-29T07:05:30.907Z,998.8
2017-10-29T07:06:32.310Z,998.9
2017-10-29T07:07:33.708Z,999.0
2017-10-29T07:08:35.117Z,998.9
2017-10-29T07:09:36.515Z,999.0
2017-10-29T07:10:37.921Z,999.0
2017-10-29T07:11:39.321Z,999.0
2017-10-29T07:12:40.719Z,999.1
2017-10-29T07:13:42.117Z,999.1
2017-10-29T07:14:43.519Z,999.1
2017-10-29T07:15:44.914Z,999.1
2017-10-29T07:16:46.308Z,999.1
2017-10-29T07:17:47.707Z,999.1
2017-10-29T07:18:49.109Z,999.2
2017-10-29T07:19:50.503Z,999.3
2017-10-29T07:20:51.902Z,999.3
2017-10-29T07:21:53.303Z,999.3
2017-10-29T07:22:54.700Z,999.3
2017-10-29T07:23:56.098Z,999.3
2017-10-29T07:24:57.500Z,999.4
2017-10-29T07:25:58.899Z,999.4
2017-10-29T07:27:00.298Z,999.4
2017-10-29T07:28:01.696Z,999.5
2017-10-29T07:29:03.185Z,999.5
2017-10-29T07:30:04.592Z,999.7
2017-10-29T07:31:05.993Z,999.6
2017-10-29T07:32:07.393Z,999.7
2017-10-29T07:33:08.800Z,999.7
2017-10-29T07:34:10.259Z,999.6
2017-10-29T07:35:11.657Z,999.7
2017-10-29T07:36:13.065Z,999.7
2017-10-29T07:38:16.008Z,999.8
2017-10-29T07:39:17.519Z,999.8
2017-10-29T07:40:19.028Z,999.8
2017-10-29T07:41:20.749Z,1000.0
2017-10-29T07:42:23.617Z,999.9
2017-10-29T07:43:25.266Z,999.9
2017-10-29T07:45:06.178Z,999.9
2017-10-29T07:46:07.589Z,999.9
2017-10-29T07:47:08.985Z,1000.0
2017-10-29T07:48:10.428Z,1000.0
2017-10-29T07:49:11.821Z,1000.0
2017-10-29T07:50:13.219Z,1000.0
2017-10-29T07:51:14.621Z,1000.0
2017-10-29T07:52:16.026Z,1000.1
2017-10-29T07:53:17.427Z,1000.1
2017-10-29T07:54:18.826Z,1000.1
2017-10-29T07:55:20.231Z,1000.1
2017-10-29T07:56:21.637Z,1000.1
2017-10-29T07:57:23.135Z,1000.2
2017-10-29T07:58:24.530Z,1000.2
2017-10-29T07:59:25.934Z,1000.3
2017-10-29T08:00:27.334Z,1000.2
2017-10-29T08:01:28.733Z,1000.3
2017-10-29T08:02:30.136Z,1000.3
2017-10-29T08:03:31.533Z,1000.3
2017-10-29T08:04:32.937Z,1000.4
2017-10-29T08:05:34.335Z,1000.4
2017-10-29T08:06:35.737Z,1000.5
2017-10-29T08:07:37.137Z,1000.4
2017-10-29T08:08:38.536Z,1000.5
2017-10-29T08:09:39.939Z,1000.5
2017-10-29T08:10:41.340Z,1000.5
2017-10-29T08:11:42.754Z,1000.5
2017-10-29T08:12:44.198Z,1000.5
2017-10-29T08:13:45.604Z,1000.5
2017-10-29T08:14:47.003Z,1000.6
2017-10-29T08:15:48.402Z,1000.6
2017-10-29T08:16:49.802Z,1000.5
2017-10-29T08:17:51.205Z,1000.6
2017-10-29T08:18:52.607Z,1000.5
2017-10-29T08:19:54.030Z,1000.6
2017-10-29T08:20:55.441Z,1000.6
2017-10-29T08:21:56.838Z,1000.7
2017-10-29T08:22:58.238Z,1000.7
2017-10-29T08:23:59.639Z,1000.7
2017-10-29T08:25:01.058Z,1000.7
2017-10-29T08:26:02.459Z,1000.8
2017-10-29T08:27:03.863Z,1000.7
2017-10-29T08:28:05.264Z,1000.8
2017-10-29T08:29:06.668Z,1000.8
2017-10-29T08:30:08.068Z,1000.8
2017-10-29T08:31:09.467Z,1000.8
2017-10-29T08:32:10.868Z,1000.9
2017-10-29T08:33:12.269Z,1001.0
2017-10-29T08:34:13.682Z,1000.9
2017-10-29T08:35:15.076Z,1000.9
2017-10-29T08:36:16.475Z,1000.9
2017-10-29T08:37:17.878Z,1001.0
2017-10-29T08:38:19.299Z,1001.0
2017-10-29T08:39:20.704Z,1001.1
2017-10-29T08:40:22.270Z,1001.0
2017-10-29T08:41:23.728Z,1001.0
2017-10-29T08:42:25.133Z,1001.1
2017-10-29T08:43:26.534Z,1001.1
2017-10-29T08:44:28.034Z,1001.2
2017-10-29T08:45:29.435Z,1001.2
2017-10-29T08:46:30.960Z,1001.1
2017-10-29T08:47:32.363Z,1001.2
2017-10-29T08:48:33.766Z,1001.2
2017-10-29T08:49:35.291Z,1001.2
2017-10-29T08:50:36.687Z,1001.3
2017-10-29T08:51:38.111Z,1001.3
2017-10-29T08:52:39.513Z,1001.3
2017-10-29T08:53:40.919Z,1001.4
2017-10-29T08:54:42.317Z,1001.4
2017-10-29T08:55:43.717Z,1001.4
2017-10-29T08:56:45.118Z,1001.5
2017-10-29T08:57:46.521Z,1001.5
2017-10-29T08:58:47.935Z,1001.5
2017-10-29T08:59:49.334Z,1001.5
2017-10-29T09:00:50.737Z,1001.5
2017-10-29T09:01:52.155Z,1001.5
2017-10-29T09:02:53.594Z,1001.5
2017-10-29T09:03:54.994Z,1001.5
2017-10-29T09:04:56.395Z,1001.6
2017-10-29T09:05:57.825Z,1001.5
2017-10-29T09:06:59.221Z,1001.5
2017-10-29T09:08:00.616Z,1001.5
2017-10-29T09:09:02.036Z,1001.5
2017-10-29T09:10:03.428Z,1001.6
2017-10-29T09:11:04.834Z,1001.6
2017-10-29T09:12:06.236Z,1001.7
2017-10-29T09:13:07.647Z,1001.7
2017-10-29T09:14:09.050Z,1001.7
2017-10-29T09:15:10.455Z,1001.8
2017-10-29T09:16:11.865Z,1001.7
2017-10-29T09:17:13.267Z,1001.7
2017-10-29T09:18:14.684Z,1001.7
2017-10-29T09:19:16.085Z,1001.7
2017-10-29T09:20:17.510Z,1001.7
2017-10-29T09:21:18.911Z,1001.6
2017-10-29T09:22:20.321Z,1001.7
2017-10-29T09:23:21.728Z,1001.7
2017-10-29T09:24:23.123Z,1001.7
2017-10-29T09:25:24.534Z,1001.7
2017-10-29T09:26:25.929Z,1001.7
2017-10-29T09:27:27.328Z,1001.8
2017-10-29T09:28:28.731Z,1001.7
2017-10-29T09:29:30.137Z,1001.8
2017-10-29T09:30:31.543Z,1001.8
2017-10-29T09:31:32.948Z,1001.8
2017-10-29T09:32:34.381Z,1001.8
2017-10-29T09:33:35.758Z,1001.9
2017-10-29T09:34:37.162Z,1001.9
2017-10-29T09:35:38.573Z,1002.0
2017-10-29T09:36:39.980Z,1002.0
2017-10-29T09:37:41.387Z,1002.0
2017-10-29T09:38:42.805Z,1001.9
2017-10-29T09:39:44.206Z,1002.1
2017-10-29T09:40:45.607Z,1002.1
2017-10-29T09:41:47.013Z,1002.1
2017-10-29T09:42:50.640Z,1002.1
2017-10-29T09:43:52.088Z,1002.1
2017-10-29T09:44:53.493Z,1002.1
2017-10-29T09:45:54.901Z,1002.1
2017-10-29T09:46:56.305Z,1002.2
2017-10-29T09:47:57.707Z,1002.1
2017-10-29T09:48:59.125Z,1002.0
2017-10-29T09:50:00.520Z,1002.1
2017-10-29T09:51:01.926Z,1002.2
2017-10-29T09:52:03.336Z,1002.1
2017-10-29T09:53:04.747Z,1002.2
2017-10-29T09:54:06.155Z,1002.3
2017-10-29T09:55:07.563Z,1002.3
2017-10-29T09:56:08.972Z,1002.2
2017-10-29T09:57:10.385Z,1002.2
2017-10-29T09:58:11.787Z,1002.3
2017-10-29T09:59:13.201Z,1002.4
2017-10-29T10:00:14.611Z,1002.3
2017-10-29T10:01:16.021Z,1002.2
2017-10-29T10:02:17.427Z,1002.3
2017-10-29T10:03:18.842Z,1002.3
2017-10-29T10:04:20.308Z,1002.3
2017-10-29T10:05:21.719Z,1002.2
2017-10-29T10:06:23.126Z,1002.4
2017-10-29T10:07:24.545Z,1002.4
2017-10-29T10:08:25.953Z,1002.4
2017-10-29T10:09:27.360Z,1002.4
2017-10-29T10:10:28.770Z,1002.4
2017-10-29T10:11:30.176Z,1002.2
2017-10-29T10:12:31.583Z,1002.5
2017-10-29T10:13:33.001Z,1002.4
2017-10-29T10:14:34.410Z,1002.3
2017-10-29T10:15:35.820Z,1002.5
2017-10-29T10:16:37.227Z,1002.3
2017-10-29T10:17:38.630Z,1002.3
2017-10-29T10:18:40.045Z,1002.3
2017-10-29T10:19:41.452Z,1002.3
2017-10-29T10:20:42.860Z,1002.4
2017-10-29T10:21:44.268Z,1002.3
2017-10-29T10:22:45.680Z,1002.3
2017-10-29T10:23:47.088Z,1002.3
2017-10-29T10:24:48.490Z,1002.6
2017-10-29T10:25:49.894Z,1002.6
2017-10-29T10:26:51.307Z,1002.4
2017-10-29T10:27:52.707Z,1002.7
2017-10-29T10:28:54.118Z,1002.8
2017-10-29T10:29:55.531Z,1002.6
2017-10-29T10:30:56.931Z,1002.5
2017-10-29T10:31:58.375Z,1002.4
2017-10-29T10:32:59.780Z,1002.5
2017-10-29T10:34:01.185Z,1002.6
2017-10-29T10:35:02.598Z,1002.7
2017-10-29T10:36:04.029Z,1002.7
2017-10-29T10:37:05.439Z,1002.7
2017-10-29T10:38:06.848Z,1002.7
2017-10-29T10:39:08.271Z,1002.8
2017-10-29T10:40:09.679Z,1002.7
2017-10-29T10:41:11.089Z,1002.7
2017-10-29T10:42:12.498Z,1002.8
2017-10-29T10:43:13.922Z,1002.7
2017-10-29T10:44:15.345Z,1002.5
2017-10-29T10:45:16.750Z,1002.5
2017-10-29T10:46:18.156Z,1002.8
2017-10-29T10:47:19.563Z,1002.8
2017-10-29T10:48:20.973Z,1002.8
2017-10-29T10:49:22.381Z,1002.8
2017-10-29T10:50:23.794Z,1002.7
2017-10-29T10:51:25.206Z,1002.7
2017-10-29T10:52:26.618Z,1002.7
2017-10-29T10:53:28.026Z,1002.8
2017-10-29T10:54:29.438Z,1002.8
2017-10-29T10:55:30.924Z,1002.8
2017-10-29T10:56:32.333Z,1002.6
2017-10-29T10:57:33.746Z,1002.6
2017-10-29T10:58:35.153Z,1002.6
2017-10-29T10:59:36.565Z,1002.6
2017-10-29T11:00:37.972Z,1002.8
2017-10-29T11:01:39.381Z,1002.6
2017-10-29T11:02:40.795Z,1002.8
2017-10-29T11:03:42.205Z,1002.8
2017-10-29T11:04:43.612Z,1002.8
2017-10-29T11:05:45.019Z,1002.8
2017-10-29T11:06:46.426Z,1002.5
2017-10-29T11:07:47.832Z,1002.7
2017-10-29T11:08:49.236Z,1002.8
2017-10-29T11:09:50.643Z,1002.8
2017-10-29T11:10:52.054Z,1002.7
2017-10-29T11:11:53.465Z,1002.7
2017-10-29T11:12:54.876Z,1002.7
2017-10-29T11:13:56.285Z,1002.8
2017-10-29T11:14:57.693Z,1002.8
2017-10-29T11:15:59.109Z,1002.8
2017-10-29T11:17:00.589Z,1002.6
2017-10-29T11:18:01.993Z,1002.7
2017-10-29T11:19:03.437Z,1002.7
2017-10-29T11:20:04.854Z,1002.9
2017-10-29T11:21:06.256Z,1002.7
2017-10-29T11:22:07.664Z,1002.8
2017-10-29T11:23:09.074Z,1002.8
2017-10-29T11:24:10.555Z,1002.8
2017-10-29T11:25:11.973Z,1002.8
2017-10-29T11:26:13.381Z,1002.9
2017-10-29T11:27:14.788Z,1002.8
2017-10-29T11:28:16.194Z,1002.8
2017-10-29T11:29:17.604Z,1002.8
2017-10-29T11:30:19.023Z,1002.7
2017-10-29T11:31:20.428Z,1002.8
2017-10-29T11:32:21.841Z,1002.7
2017-10-29T11:33:23.247Z,1002.7
2017-10-29T11:34:24.652Z,1002.7
2017-10-29T11:35:26.058Z,1002.6
2017-10-29T11:36:27.468Z,1002.7
2017-10-29T11:37:28.873Z,1002.8
2017-10-29T11:38:30.279Z,1002.8
2017-10-29T11:39:31.686Z,1002.8
2017-10-29T11:40:33.094Z,1002.8
2017-10-29T11:41:34.529Z,1002.8
2017-10-29T11:42:35.939Z,1002.8
2017-10-29T11:43:37.349Z,1002.8
2017-10-29T11:44:38.754Z,1002.8
2017-10-29T11:45:40.157Z,1002.8
2017-10-29T11:46:41.576Z,1002.8
2017-10-29T11:47:42.971Z,1002.8
2017-10-29T11:48:44.374Z,1002.8
2017-10-29T11:49:45.778Z,1002.8
2017-10-29T11:50:47.183Z,1002.8
2017-10-29T11:51:48.581Z,1002.9
2017-10-29T11:52:49.986Z,1002.9
2017-10-29T11:53:51.390Z,1002.9
2017-10-29T11:54:52.795Z,1003.0
2017-10-29T11:55:54.204Z,1003.1
2017-10-29T11:56:55.607Z,1003.1
2017-10-29T11:57:57.012Z,1003.1
2017-10-29T11:58:58.415Z,1003.0
2017-10-29T11:59:59.821Z,1003.1
2017-10-29T12:01:01.224Z,1003.1
2017-10-29T12:02:02.632Z,1003.1
2017-10-29T12:03:04.040Z,1003.1
2017-10-29T12:04:05.445Z,1003.1
2017-10-29T12:05:06.852Z,1003.1
2017-10-29T12:06:08.256Z,1003.1
2017-10-29T12:07:09.661Z,1003.2
2017-10-29T12:08:11.064Z,1003.1
2017-10-29T12:09:12.472Z,1003.1
2017-10-29T12:10:13.905Z,1003.1
2017-10-29T12:11:15.309Z,1003.2
2017-10-29T12:12:16.716Z,1003.2
2017-10-29T12:13:18.120Z,1003.3
2017-10-29T12:14:19.527Z,1003.2
2017-10-29T12:15:20.929Z,1003.2
2017-10-29T12:16:22.337Z,1003.2
2017-10-29T12:17:23.745Z,1003.2
2017-10-29T12:18:25.145Z,1003.2
2017-10-29T12:19:26.580Z,1003.2
2017-10-29T12:20:27.975Z,1003.1
2017-10-29T12:21:29.378Z,1003.1
2017-10-29T12:22:30.787Z,1003.1
2017-10-29T12:23:32.197Z,1003.0
2017-10-29T12:24:33.607Z,1003.1
2017-10-29T12:25:35.013Z,1003.2
2017-10-29T12:26:36.415Z,1003.2
2017-10-29T12:27:37.821Z,1003.3
2017-10-29T12:28:39.227Z,1003.3
2017-10-29T12:29:40.635Z,1003.3
2017-10-29T12:30:42.040Z,1003.4
2017-10-29T12:31:43.443Z,1003.5
2017-10-29T12:32:44.845Z,1003.6
2017-10-29T12:33:46.247Z,1003.6
2017-10-29T12:34:47.651Z,1003.6
2017-10-29T12:35:49.058Z,1003.6
2017-10-29T12:36:50.463Z,1003.6
2017-10-29T12:37:51.867Z,1003.6
2017-10-29T12:38:53.272Z,1003.6
2017-10-29T12:39:54.675Z,1003.6
2017-10-29T12:40:56.078Z,1003.6
2017-10-29T12:41:57.481Z,1003.7
2017-10-29T12:42:58.936Z,1003.7
2017-10-29T12:44:00.344Z,1003.7
2017-10-29T12:45:01.767Z,1003.8
2017-10-29T12:46:03.174Z,1003.7
2017-10-29T12:47:04.577Z,1003.8
2017-10-29T12:48:05.983Z,1003.9
2017-10-29T12:49:07.559Z,1003.8
2017-10-29T12:50:08.987Z,1003.8
2017-10-29T12:51:10.393Z,1003.8
2017-10-29T12:52:11.801Z,1003.8
2017-10-29T12:53:13.205Z,1003.8
2017-10-29T12:54:14.682Z,1003.8
2017-10-29T12:55:16.195Z,1003.9
2017-10-29T12:56:17.657Z,1003.8
2017-10-29T12:57:19.068Z,1003.8
2017-10-29T12:58:20.473Z,1003.7
2017-10-29T12:59:21.888Z,1003.7
2017-10-29T13:00:23.292Z,1003.7
2017-10-29T13:01:24.692Z,1003.7
2017-10-29T13:02:26.095Z,1003.7